sensor_id;sensor_type;location;lat;lon;timestamp;P1;durP1;ratioP1;P2;durP2;ratioP2
80297;SDS011;69599;52.622;9.230;2023-08-21T00:01:52;3.33;;;1.52;;
80297;SDS011;69599;52.622;9.230;2023-08-21T00:04:17;3.22;;;1.80;;
80297;SDS011;69599;52.622;9.230;2023-08-21T00:06:43;3.67;;;1.65;;
80297;SDS011;69599;52.622;9.230;2023-08-21T00:09:08;2.55;;;2.13;;
80297;SDS011;69599;52.622;9.230;2023-08-21T00:11:34;2.97;;;1.25;;
80297;SDS011;69599;52.622;9.230;2023-08-21T00:14:00;3.60;;;1.55;;
80297;SDS011;69599;52.622;9.230;2023-08-21T00:16:25;3.88;;;1.80;;
80297;SDS011;69599;52.622;9.230;2023-08-21T00:18:53;2.22;;;1.40;;
80297;SDS011;69599;52.622;9.230;2023-08-21T00:21:18;3.58;;;1.70;;
80297;SDS011;69599;52.622;9.230;2023-08-21T00:23:44;2.65;;;1.45;;
80297;SDS011;69599;52.622;9.230;2023-08-21T00:26:09;2.97;;;1.55;;
80297;SDS011;69599;52.622;9.230;2023-08-21T00:28:35;4.70;;;1.90;;
80297;SDS011;69599;52.622;9.230;2023-08-21T00:31:01;4.30;;;1.75;;
80297;SDS011;69599;52.622;9.230;2023-08-21T00:33:30;4.47;;;1.67;;
80297;SDS011;69599;52.622;9.230;2023-08-21T00:35:56;5.75;;;1.98;;
80297;SDS011;69599;52.622;9.230;2023-08-21T00:38:22;2.70;;;1.80;;
80297;SDS011;69599;52.622;9.230;2023-08-21T00:40:48;5.38;;;1.73;;
80297;SDS011;69599;52.622;9.230;2023-08-21T00:43:13;2.13;;;1.40;;
80297;SDS011;69599;52.622;9.230;2023-08-21T00:45:39;6.63;;;1.65;;
80297;SDS011;69599;52.622;9.230;2023-08-21T00:48:07;3.33;;;1.83;;
80297;SDS011;69599;52.622;9.230;2023-08-21T00:50:32;2.95;;;1.65;;
80297;SDS011;69599;52.622;9.230;2023-08-21T00:52:58;4.43;;;2.17;;
80297;SDS011;69599;52.622;9.230;2023-08-21T00:55:23;4.10;;;1.90;;
80297;SDS011;69599;52.622;9.230;2023-08-21T00:57:49;3.30;;;1.85;;
80297;SDS011;69599;52.622;9.230;2023-08-21T01:00:14;3.45;;;1.70;;
80297;SDS011;69599;52.622;9.230;2023-08-21T01:02:40;5.88;;;2.47;;
80297;SDS011;69599;52.622;9.230;2023-08-21T01:05:07;3.67;;;2.00;;
80297;SDS011;69599;52.622;9.230;2023-08-21T01:07:35;2.88;;;1.77;;
80297;SDS011;69599;52.622;9.230;2023-08-21T01:15:56;2.13;;;1.70;;
80297;SDS011;69599;52.622;9.230;2023-08-21T01:18:22;4.47;;;1.92;;
80297;SDS011;69599;52.622;9.230;2023-08-21T01:20:47;4.88;;;1.70;;
80297;SDS011;69599;52.622;9.230;2023-08-21T01:23:32;4.30;;;1.85;;
80297;SDS011;69599;52.622;9.230;2023-08-21T01:25:57;3.20;;;1.90;;
80297;SDS011;69599;52.622;9.230;2023-08-21T01:28:23;4.05;;;1.73;;
80297;SDS011;69599;52.622;9.230;2023-08-21T01:30:49;3.03;;;1.90;;
80297;SDS011;69599;52.622;9.230;2023-08-21T01:33:15;4.38;;;2.03;;
80297;SDS011;69599;52.622;9.230;2023-08-21T01:35:41;5.55;;;1.80;;
80297;SDS011;69599;52.622;9.230;2023-08-21T01:38:07;3.67;;;1.83;;
80297;SDS011;69599;52.622;9.230;2023-08-21T01:40:32;4.38;;;2.17;;
80297;SDS011;69599;52.622;9.230;2023-08-21T01:42:58;4.30;;;1.77;;
80297;SDS011;69599;52.622;9.230;2023-08-21T01:45:23;3.15;;;1.70;;
80297;SDS011;69599;52.622;9.230;2023-08-21T01:47:49;5.18;;;1.65;;
80297;SDS011;69599;52.622;9.230;2023-08-21T01:50:14;4.97;;;2.10;;
80297;SDS011;69599;52.622;9.230;2023-08-21T01:52:40;6.55;;;2.10;;
80297;SDS011;69599;52.622;9.230;2023-08-21T01:55:05;4.80;;;2.05;;
80297;SDS011;69599;52.622;9.230;2023-08-21T01:57:33;3.25;;;1.83;;
80297;SDS011;69599;52.622;9.230;2023-08-21T01:59:58;2.92;;;1.85;;
80297;SDS011;69599;52.622;9.230;2023-08-21T02:02:23;3.95;;;2.38;;
80297;SDS011;69599;52.622;9.230;2023-08-21T02:04:49;3.53;;;1.77;;
80297;SDS011;69599;52.622;9.230;2023-08-21T02:07:14;3.25;;;1.88;;
80297;SDS011;69599;52.622;9.230;2023-08-21T02:09:40;3.50;;;2.13;;
80297;SDS011;69599;52.622;9.230;2023-08-21T02:12:05;4.18;;;2.20;;
80297;SDS011;69599;52.622;9.230;2023-08-21T02:14:31;3.30;;;1.90;;
80297;SDS011;69599;52.622;9.230;2023-08-21T02:16:56;3.63;;;2.20;;
80297;SDS011;69599;52.622;9.230;2023-08-21T02:19:22;3.00;;;2.05;;
80297;SDS011;69599;52.622;9.230;2023-08-21T02:21:47;3.33;;;2.17;;
80297;SDS011;69599;52.622;9.230;2023-08-21T02:24:13;3.47;;;1.92;;
80297;SDS011;69599;52.622;9.230;2023-08-21T02:26:38;6.70;;;2.38;;
80297;SDS011;69599;52.622;9.230;2023-08-21T02:29:03;4.60;;;2.90;;
80297;SDS011;69599;52.622;9.230;2023-08-21T02:31:29;3.35;;;2.15;;
80297;SDS011;69599;52.622;9.230;2023-08-21T02:33:54;2.53;;;1.85;;
80297;SDS011;69599;52.622;9.230;2023-08-21T02:36:20;3.72;;;2.03;;
80297;SDS011;69599;52.622;9.230;2023-08-21T02:38:45;3.15;;;2.17;;
80297;SDS011;69599;52.622;9.230;2023-08-21T02:41:11;3.88;;;1.98;;
80297;SDS011;69599;52.622;9.230;2023-08-21T02:43:36;3.42;;;2.00;;
80297;SDS011;69599;52.622;9.230;2023-08-21T02:46:01;4.30;;;2.05;;
80297;SDS011;69599;52.622;9.230;2023-08-21T02:48:27;3.80;;;2.47;;
80297;SDS011;69599;52.622;9.230;2023-08-21T02:50:52;4.07;;;2.05;;
80297;SDS011;69599;52.622;9.230;2023-08-21T02:53:18;3.95;;;2.38;;
80297;SDS011;69599;52.622;9.230;2023-08-21T02:55:43;4.63;;;1.88;;
80297;SDS011;69599;52.622;9.230;2023-08-21T02:58:09;3.72;;;2.08;;
80297;SDS011;69599;52.622;9.230;2023-08-21T03:00:34;3.38;;;2.10;;
80297;SDS011;69599;52.622;9.230;2023-08-21T03:03:00;5.00;;;2.03;;
80297;SDS011;69599;52.622;9.230;2023-08-21T03:05:25;3.55;;;1.85;;
80297;SDS011;69599;52.622;9.230;2023-08-21T03:07:51;3.50;;;2.20;;
80297;SDS011;69599;52.622;9.230;2023-08-21T03:10:16;3.88;;;2.58;;
80297;SDS011;69599;52.622;9.230;2023-08-21T03:12:43;4.63;;;2.17;;
80297;SDS011;69599;52.622;9.230;2023-08-21T03:15:08;5.22;;;2.28;;
80297;SDS011;69599;52.622;9.230;2023-08-21T03:17:34;4.13;;;2.30;;
80297;SDS011;69599;52.622;9.230;2023-08-21T03:19:59;4.40;;;2.65;;
80297;SDS011;69599;52.622;9.230;2023-08-21T03:22:25;3.83;;;2.20;;
80297;SDS011;69599;52.622;9.230;2023-08-21T03:24:50;4.30;;;2.22;;
80297;SDS011;69599;52.622;9.230;2023-08-21T03:27:15;3.90;;;2.30;;
80297;SDS011;69599;52.622;9.230;2023-08-21T03:29:42;4.13;;;2.60;;
80297;SDS011;69599;52.622;9.230;2023-08-21T03:32:13;7.13;;;3.47;;
80297;SDS011;69599;52.622;9.230;2023-08-21T03:34:42;5.75;;;2.53;;
80297;SDS011;69599;52.622;9.230;2023-08-21T03:37:07;5.47;;;2.47;;
80297;SDS011;69599;52.622;9.230;2023-08-21T03:39:33;5.43;;;2.83;;
80297;SDS011;69599;52.622;9.230;2023-08-21T03:41:58;3.75;;;2.38;;
80297;SDS011;69599;52.622;9.230;2023-08-21T03:44:24;4.70;;;2.60;;
80297;SDS011;69599;52.622;9.230;2023-08-21T03:46:49;5.43;;;3.10;;
80297;SDS011;69599;52.622;9.230;2023-08-21T03:49:14;4.75;;;2.25;;
80297;SDS011;69599;52.622;9.230;2023-08-21T03:51:40;4.97;;;2.55;;
80297;SDS011;69599;52.622;9.230;2023-08-21T03:54:05;4.95;;;2.80;;
80297;SDS011;69599;52.622;9.230;2023-08-21T03:56:31;4.85;;;2.20;;
80297;SDS011;69599;52.622;9.230;2023-08-21T03:58:56;4.05;;;2.25;;
80297;SDS011;69599;52.622;9.230;2023-08-21T04:01:21;3.58;;;2.55;;
80297;SDS011;69599;52.622;9.230;2023-08-21T04:03:47;5.00;;;2.50;;
80297;SDS011;69599;52.622;9.230;2023-08-21T04:06:12;7.00;;;3.40;;
80297;SDS011;69599;52.622;9.230;2023-08-21T04:08:38;7.65;;;3.95;;
80297;SDS011;69599;52.622;9.230;2023-08-21T04:11:04;4.30;;;2.50;;
80297;SDS011;69599;52.622;9.230;2023-08-21T04:13:30;3.25;;;2.30;;
80297;SDS011;69599;52.622;9.230;2023-08-21T04:15:56;3.58;;;2.33;;
80297;SDS011;69599;52.622;9.230;2023-08-21T04:18:21;4.68;;;2.38;;
80297;SDS011;69599;52.622;9.230;2023-08-21T04:20:47;4.03;;;2.38;;
80297;SDS011;69599;52.622;9.230;2023-08-21T04:23:13;4.60;;;2.75;;
80297;SDS011;69599;52.622;9.230;2023-08-21T04:25:38;6.05;;;2.53;;
80297;SDS011;69599;52.622;9.230;2023-08-21T04:28:04;4.90;;;2.85;;
80297;SDS011;69599;52.622;9.230;2023-08-21T04:30:29;4.82;;;2.70;;
80297;SDS011;69599;52.622;9.230;2023-08-21T04:32:55;5.72;;;2.70;;
80297;SDS011;69599;52.622;9.230;2023-08-21T04:35:20;4.78;;;2.45;;
80297;SDS011;69599;52.622;9.230;2023-08-21T04:37:46;5.55;;;2.78;;
80297;SDS011;69599;52.622;9.230;2023-08-21T04:40:12;3.97;;;2.20;;
80297;SDS011;69599;52.622;9.230;2023-08-21T04:42:38;6.35;;;2.65;;
80297;SDS011;69599;52.622;9.230;2023-08-21T04:45:04;7.10;;;3.00;;
80297;SDS011;69599;52.622;9.230;2023-08-21T04:47:30;7.63;;;2.95;;
80297;SDS011;69599;52.622;9.230;2023-08-21T04:49:56;6.20;;;3.10;;
80297;SDS011;69599;52.622;9.230;2023-08-21T04:52:23;6.68;;;2.92;;
80297;SDS011;69599;52.622;9.230;2023-08-21T04:54:49;6.75;;;3.10;;
80297;SDS011;69599;52.622;9.230;2023-08-21T04:57:15;6.55;;;3.20;;
80297;SDS011;69599;52.622;9.230;2023-08-21T04:59:41;5.35;;;3.28;;
80297;SDS011;69599;52.622;9.230;2023-08-21T05:02:06;5.50;;;3.30;;
80297;SDS011;69599;52.622;9.230;2023-08-21T05:04:32;5.20;;;3.22;;
80297;SDS011;69599;52.622;9.230;2023-08-21T05:06:59;5.63;;;2.88;;
80297;SDS011;69599;52.622;9.230;2023-08-21T05:09:24;5.35;;;2.80;;
80297;SDS011;69599;52.622;9.230;2023-08-21T05:11:49;7.40;;;3.33;;
80297;SDS011;69599;52.622;9.230;2023-08-21T05:14:15;9.48;;;5.13;;
80297;SDS011;69599;52.622;9.230;2023-08-21T05:16:40;5.15;;;3.25;;
80297;SDS011;69599;52.622;9.230;2023-08-21T05:19:06;9.38;;;3.40;;
80297;SDS011;69599;52.622;9.230;2023-08-21T05:21:31;6.63;;;3.40;;
80297;SDS011;69599;52.622;9.230;2023-08-21T05:23:56;5.28;;;3.47;;
80297;SDS011;69599;52.622;9.230;2023-08-21T05:26:22;5.50;;;3.08;;
80297;SDS011;69599;52.622;9.230;2023-08-21T05:28:47;7.82;;;3.10;;
80297;SDS011;69599;52.622;9.230;2023-08-21T05:31:13;7.70;;;3.63;;
80297;SDS011;69599;52.622;9.230;2023-08-21T05:33:38;6.40;;;3.60;;
80297;SDS011;69599;52.622;9.230;2023-08-21T05:36:04;7.20;;;3.33;;
80297;SDS011;69599;52.622;9.230;2023-08-21T05:38:29;5.95;;;3.53;;
80297;SDS011;69599;52.622;9.230;2023-08-21T05:40:55;5.60;;;3.47;;
80297;SDS011;69599;52.622;9.230;2023-08-21T05:43:21;7.85;;;4.28;;
80297;SDS011;69599;52.622;9.230;2023-08-21T05:45:46;5.90;;;3.40;;
80297;SDS011;69599;52.622;9.230;2023-08-21T05:48:13;6.20;;;3.17;;
80297;SDS011;69599;52.622;9.230;2023-08-21T05:50:38;6.78;;;3.80;;
80297;SDS011;69599;52.622;9.230;2023-08-21T05:53:04;6.65;;;4.07;;
80297;SDS011;69599;52.622;9.230;2023-08-21T05:55:29;5.25;;;3.75;;
80297;SDS011;69599;52.622;9.230;2023-08-21T05:57:55;7.18;;;4.93;;
80297;SDS011;69599;52.622;9.230;2023-08-21T06:00:20;7.40;;;3.95;;
80297;SDS011;69599;52.622;9.230;2023-08-21T06:02:46;5.15;;;3.80;;
80297;SDS011;69599;52.622;9.230;2023-08-21T06:05:11;5.35;;;3.88;;
80297;SDS011;69599;52.622;9.230;2023-08-21T06:07:37;7.15;;;3.35;;
80297;SDS011;69599;52.622;9.230;2023-08-21T06:10:02;6.57;;;3.35;;
80297;SDS011;69599;52.622;9.230;2023-08-21T06:12:29;6.15;;;3.50;;
80297;SDS011;69599;52.622;9.230;2023-08-21T06:14:55;5.80;;;3.40;;
80297;SDS011;69599;52.622;9.230;2023-08-21T06:17:20;5.68;;;3.17;;
80297;SDS011;69599;52.622;9.230;2023-08-21T06:19:46;4.38;;;2.78;;
80297;SDS011;69599;52.622;9.230;2023-08-21T06:22:11;5.40;;;3.15;;
80297;SDS011;69599;52.622;9.230;2023-08-21T06:24:36;5.00;;;3.00;;
80297;SDS011;69599;52.622;9.230;2023-08-21T06:27:02;8.00;;;3.30;;
80297;SDS011;69599;52.622;9.230;2023-08-21T06:29:27;7.93;;;3.65;;
80297;SDS011;69599;52.622;9.230;2023-08-21T06:31:53;8.57;;;3.88;;
80297;SDS011;69599;52.622;9.230;2023-08-21T06:34:20;5.63;;;3.97;;
80297;SDS011;69599;52.622;9.230;2023-08-21T06:36:45;9.05;;;4.63;;
80297;SDS011;69599;52.622;9.230;2023-08-21T06:39:10;9.52;;;4.95;;
80297;SDS011;69599;52.622;9.230;2023-08-21T06:41:36;16.83;;;5.47;;
80297;SDS011;69599;52.622;9.230;2023-08-21T06:44:01;10.52;;;4.85;;
80297;SDS011;69599;52.622;9.230;2023-08-21T06:46:26;9.40;;;4.57;;
80297;SDS011;69599;52.622;9.230;2023-08-21T06:48:52;10.05;;;6.15;;
80297;SDS011;69599;52.622;9.230;2023-08-21T06:51:17;7.30;;;4.60;;
80297;SDS011;69599;52.622;9.230;2023-08-21T06:53:43;9.55;;;4.93;;
80297;SDS011;69599;52.622;9.230;2023-08-21T06:56:08;8.60;;;4.28;;
80297;SDS011;69599;52.622;9.230;2023-08-21T06:58:34;9.73;;;4.60;;
80297;SDS011;69599;52.622;9.230;2023-08-21T07:01:02;9.40;;;4.40;;
80297;SDS011;69599;52.622;9.230;2023-08-21T07:03:27;7.22;;;4.38;;
80297;SDS011;69599;52.622;9.230;2023-08-21T07:05:53;8.00;;;4.30;;
80297;SDS011;69599;52.622;9.230;2023-08-21T07:08:22;9.68;;;4.65;;
80297;SDS011;69599;52.622;9.230;2023-08-21T07:10:48;10.43;;;4.50;;
80297;SDS011;69599;52.622;9.230;2023-08-21T07:13:13;9.63;;;5.00;;
80297;SDS011;69599;52.622;9.230;2023-08-21T07:15:39;10.45;;;4.78;;
80297;SDS011;69599;52.622;9.230;2023-08-21T07:18:04;7.15;;;4.32;;
80297;SDS011;69599;52.622;9.230;2023-08-21T07:20:29;9.07;;;4.32;;
80297;SDS011;69599;52.622;9.230;2023-08-21T07:22:55;8.15;;;4.20;;
80297;SDS011;69599;52.622;9.230;2023-08-21T07:25:20;8.43;;;4.55;;
80297;SDS011;69599;52.622;9.230;2023-08-21T07:27:46;9.57;;;5.68;;
80297;SDS011;69599;52.622;9.230;2023-08-21T07:30:11;12.07;;;4.95;;
80297;SDS011;69599;52.622;9.230;2023-08-21T07:32:36;10.57;;;4.50;;
80297;SDS011;69599;52.622;9.230;2023-08-21T07:35:02;7.25;;;4.25;;
80297;SDS011;69599;52.622;9.230;2023-08-21T07:37:28;9.35;;;4.45;;
80297;SDS011;69599;52.622;9.230;2023-08-21T07:39:53;11.63;;;5.53;;
80297;SDS011;69599;52.622;9.230;2023-08-21T07:44:47;10.53;;;5.27;;
80297;SDS011;69599;52.622;9.230;2023-08-21T07:47:12;10.02;;;4.75;;
80297;SDS011;69599;52.622;9.230;2023-08-21T07:49:38;12.95;;;5.38;;
80297;SDS011;69599;52.622;9.230;2023-08-21T07:52:03;9.05;;;4.28;;
80297;SDS011;69599;52.622;9.230;2023-08-21T07:54:29;7.95;;;5.00;;
80297;SDS011;69599;52.622;9.230;2023-08-21T07:56:54;10.85;;;5.50;;
80297;SDS011;69599;52.622;9.230;2023-08-21T07:59:20;11.57;;;4.78;;
80297;SDS011;69599;52.622;9.230;2023-08-21T08:01:45;15.68;;;5.88;;
80297;SDS011;69599;52.622;9.230;2023-08-21T08:04:11;12.35;;;5.80;;
80297;SDS011;69599;52.622;9.230;2023-08-21T08:06:36;9.52;;;4.80;;
80297;SDS011;69599;52.622;9.230;2023-08-21T08:09:02;11.05;;;5.97;;
80297;SDS011;69599;52.622;9.230;2023-08-21T08:11:28;9.57;;;4.38;;
80297;SDS011;69599;52.622;9.230;2023-08-21T08:13:54;14.45;;;5.78;;
80297;SDS011;69599;52.622;9.230;2023-08-21T08:16:20;8.70;;;4.63;;
80297;SDS011;69599;52.622;9.230;2023-08-21T08:18:46;9.45;;;4.43;;
80297;SDS011;69599;52.622;9.230;2023-08-21T08:21:12;11.82;;;4.50;;
80297;SDS011;69599;52.622;9.230;2023-08-21T08:23:37;9.82;;;4.60;;
80297;SDS011;69599;52.622;9.230;2023-08-21T08:26:03;9.05;;;4.30;;
80297;SDS011;69599;52.622;9.230;2023-08-21T08:28:28;6.03;;;3.75;;
80297;SDS011;69599;52.622;9.230;2023-08-21T08:30:54;6.13;;;3.28;;
80297;SDS011;69599;52.622;9.230;2023-08-21T08:33:19;10.15;;;3.60;;
80297;SDS011;69599;52.622;9.230;2023-08-21T08:35:45;12.70;;;3.88;;
80297;SDS011;69599;52.622;9.230;2023-08-21T08:38:10;8.15;;;3.55;;
80297;SDS011;69599;52.622;9.230;2023-08-21T08:40:42;8.93;;;4.00;;
80297;SDS011;69599;52.622;9.230;2023-08-21T08:43:10;10.52;;;4.50;;
80297;SDS011;69599;52.622;9.230;2023-08-21T08:45:36;8.00;;;3.90;;
80297;SDS011;69599;52.622;9.230;2023-08-21T08:48:02;10.80;;;3.78;;
80297;SDS011;69599;52.622;9.230;2023-08-21T08:50:32;10.70;;;3.88;;
80297;SDS011;69599;52.622;9.230;2023-08-21T08:52:58;12.07;;;3.85;;
80297;SDS011;69599;52.622;9.230;2023-08-21T08:55:24;9.40;;;3.63;;
80297;SDS011;69599;52.622;9.230;2023-08-21T08:57:50;9.18;;;3.38;;
80297;SDS011;69599;52.622;9.230;2023-08-21T09:00:16;6.53;;;2.70;;
80297;SDS011;69599;52.622;9.230;2023-08-21T09:02:42;8.10;;;3.70;;
80297;SDS011;69599;52.622;9.230;2023-08-21T09:05:07;7.53;;;3.08;;
80297;SDS011;69599;52.622;9.230;2023-08-21T09:07:34;7.05;;;3.08;;
80297;SDS011;69599;52.622;9.230;2023-08-21T09:10:00;5.03;;;2.25;;
80297;SDS011;69599;52.622;9.230;2023-08-21T09:12:25;5.50;;;2.13;;
80297;SDS011;69599;52.622;9.230;2023-08-21T09:14:50;6.50;;;2.10;;
80297;SDS011;69599;52.622;9.230;2023-08-21T09:17:16;6.72;;;2.47;;
80297;SDS011;69599;52.622;9.230;2023-08-21T09:19:42;5.55;;;2.42;;
80297;SDS011;69599;52.622;9.230;2023-08-21T09:22:11;4.70;;;1.60;;
80297;SDS011;69599;52.622;9.230;2023-08-21T09:24:41;6.63;;;1.65;;
80297;SDS011;69599;52.622;9.230;2023-08-21T09:27:25;7.40;;;1.75;;
80297;SDS011;69599;52.622;9.230;2023-08-21T09:29:50;5.75;;;1.50;;
80297;SDS011;69599;52.622;9.230;2023-08-21T09:32:16;3.13;;;1.33;;
80297;SDS011;69599;52.622;9.230;2023-08-21T09:34:41;5.10;;;1.67;;
80297;SDS011;69599;52.622;9.230;2023-08-21T09:37:07;6.25;;;1.70;;
80297;SDS011;69599;52.622;9.230;2023-08-21T09:39:34;6.38;;;1.60;;
80297;SDS011;69599;52.622;9.230;2023-08-21T09:42:00;4.80;;;1.42;;
80297;SDS011;69599;52.622;9.230;2023-08-21T09:44:27;5.95;;;1.65;;
80297;SDS011;69599;52.622;9.230;2023-08-21T09:46:52;5.07;;;1.70;;
80297;SDS011;69599;52.622;9.230;2023-08-21T09:49:18;5.15;;;1.52;;
80297;SDS011;69599;52.622;9.230;2023-08-21T09:51:44;5.55;;;1.40;;
80297;SDS011;69599;52.622;9.230;2023-08-21T09:54:13;5.30;;;1.52;;
80297;SDS011;69599;52.622;9.230;2023-08-21T09:56:39;5.15;;;1.40;;
80297;SDS011;69599;52.622;9.230;2023-08-21T09:59:04;3.13;;;1.20;;
80297;SDS011;69599;52.622;9.230;2023-08-21T10:01:32;3.13;;;1.73;;
80297;SDS011;69599;52.622;9.230;2023-08-21T10:04:00;6.90;;;1.60;;
80297;SDS011;69599;52.622;9.230;2023-08-21T10:06:29;4.20;;;1.17;;
80297;SDS011;69599;52.622;9.230;2023-08-21T10:08:55;3.97;;;1.27;;
80297;SDS011;69599;52.622;9.230;2023-08-21T10:11:21;3.67;;;1.25;;
80297;SDS011;69599;52.622;9.230;2023-08-21T10:13:48;2.38;;;1.02;;
80297;SDS011;69599;52.622;9.230;2023-08-21T10:16:16;4.75;;;1.52;;
80297;SDS011;69599;52.622;9.230;2023-08-21T10:18:43;5.88;;;1.48;;
80297;SDS011;69599;52.622;9.230;2023-08-21T10:21:18;3.17;;;1.10;;
80297;SDS011;69599;52.622;9.230;2023-08-21T10:23:48;3.10;;;1.25;;
80297;SDS011;69599;52.622;9.230;2023-08-21T10:26:14;3.47;;;0.90;;
80297;SDS011;69599;52.622;9.230;2023-08-21T10:29:02;2.42;;;0.85;;
80297;SDS011;69599;52.622;9.230;2023-08-21T10:31:33;3.25;;;0.70;;
80297;SDS011;69599;52.622;9.230;2023-08-21T10:33:59;2.90;;;1.00;;
80297;SDS011;69599;52.622;9.230;2023-08-21T10:42:06;6.13;;;1.35;;
80297;SDS011;69599;52.622;9.230;2023-08-21T10:49:54;3.50;;;0.88;;
80297;SDS011;69599;52.622;9.230;2023-08-21T10:52:57;5.22;;;1.30;;
80297;SDS011;69599;52.622;9.230;2023-08-21T10:55:16;4.00;;;0.93;;
80297;SDS011;69599;52.622;9.230;2023-08-21T11:00:14;4.78;;;1.75;;
80297;SDS011;69599;52.622;9.230;2023-08-21T11:02:42;5.15;;;1.40;;
80297;SDS011;69599;52.622;9.230;2023-08-21T11:05:09;5.40;;;1.45;;
80297;SDS011;69599;52.622;9.230;2023-08-21T11:07:48;2.75;;;1.27;;
80297;SDS011;69599;52.622;9.230;2023-08-21T11:10:14;3.38;;;1.23;;
80297;SDS011;69599;52.622;9.230;2023-08-21T11:12:51;4.70;;;1.33;;
80297;SDS011;69599;52.622;9.230;2023-08-21T11:15:20;10.05;;;5.32;;
80297;SDS011;69599;52.622;9.230;2023-08-21T11:18:01;4.13;;;1.15;;
80297;SDS011;69599;52.622;9.230;2023-08-21T11:20:35;4.43;;;0.98;;
80297;SDS011;69599;52.622;9.230;2023-08-21T11:23:01;4.07;;;1.42;;
80297;SDS011;69599;52.622;9.230;2023-08-21T11:25:30;3.50;;;1.50;;
80297;SDS011;69599;52.622;9.230;2023-08-21T11:27:56;4.75;;;1.40;;
80297;SDS011;69599;52.622;9.230;2023-08-21T11:30:22;5.55;;;1.20;;
80297;SDS011;69599;52.622;9.230;2023-08-21T11:32:48;4.43;;;0.98;;
80297;SDS011;69599;52.622;9.230;2023-08-21T11:35:15;4.95;;;1.00;;
80297;SDS011;69599;52.622;9.230;2023-08-21T11:37:44;3.45;;;1.17;;
80297;SDS011;69599;52.622;9.230;2023-08-21T11:40:11;4.63;;;1.00;;
80297;SDS011;69599;52.622;9.230;2023-08-21T11:42:36;4.18;;;1.20;;
80297;SDS011;69599;52.622;9.230;2023-08-21T11:45:05;5.53;;;1.20;;
80297;SDS011;69599;52.622;9.230;2023-08-21T11:47:36;2.08;;;1.00;;
80297;SDS011;69599;52.622;9.230;2023-08-21T11:50:02;3.55;;;1.15;;
80297;SDS011;69599;52.622;9.230;2023-08-21T11:52:32;7.03;;;1.38;;
80297;SDS011;69599;52.622;9.230;2023-08-21T11:54:57;4.95;;;1.33;;
80297;SDS011;69599;52.622;9.230;2023-08-21T11:57:23;4.97;;;1.30;;
80297;SDS011;69599;52.622;9.230;2023-08-21T11:59:53;5.13;;;1.08;;
80297;SDS011;69599;52.622;9.230;2023-08-21T12:02:21;3.45;;;1.08;;
80297;SDS011;69599;52.622;9.230;2023-08-21T12:05:03;4.28;;;1.48;;
80297;SDS011;69599;52.622;9.230;2023-08-21T12:07:30;3.55;;;0.98;;
80297;SDS011;69599;52.622;9.230;2023-08-21T12:09:59;4.75;;;1.35;;
80297;SDS011;69599;52.622;9.230;2023-08-21T12:12:25;4.10;;;1.25;;
80297;SDS011;69599;52.622;9.230;2023-08-21T12:14:50;9.38;;;1.55;;
80297;SDS011;69599;52.622;9.230;2023-08-21T12:17:16;4.50;;;1.30;;
80297;SDS011;69599;52.622;9.230;2023-08-21T12:19:41;3.55;;;1.27;;
80297;SDS011;69599;52.622;9.230;2023-08-21T12:22:08;4.45;;;1.30;;
80297;SDS011;69599;52.622;9.230;2023-08-21T12:24:34;2.83;;;1.02;;
80297;SDS011;69599;52.622;9.230;2023-08-21T12:26:59;3.08;;;1.13;;
80297;SDS011;69599;52.622;9.230;2023-08-21T12:29:27;3.30;;;1.00;;
80297;SDS011;69599;52.622;9.230;2023-08-21T12:31:53;3.50;;;1.00;;
80297;SDS011;69599;52.622;9.230;2023-08-21T12:34:18;3.17;;;1.33;;
80297;SDS011;69599;52.622;9.230;2023-08-21T12:36:44;4.32;;;1.38;;
80297;SDS011;69599;52.622;9.230;2023-08-21T12:39:09;3.70;;;1.20;;
80297;SDS011;69599;52.622;9.230;2023-08-21T12:41:35;4.18;;;1.17;;
80297;SDS011;69599;52.622;9.230;2023-08-21T12:44:01;5.50;;;1.30;;
80297;SDS011;69599;52.622;9.230;2023-08-21T12:46:28;5.35;;;1.20;;
80297;SDS011;69599;52.622;9.230;2023-08-21T12:48:54;3.63;;;1.13;;
80297;SDS011;69599;52.622;9.230;2023-08-21T12:51:21;3.63;;;1.30;;
80297;SDS011;69599;52.622;9.230;2023-08-21T12:53:47;7.32;;;1.75;;
80297;SDS011;69599;52.622;9.230;2023-08-21T12:56:13;4.50;;;1.25;;
80297;SDS011;69599;52.622;9.230;2023-08-21T12:58:38;3.47;;;0.90;;
80297;SDS011;69599;52.622;9.230;2023-08-21T13:01:04;4.53;;;1.02;;
80297;SDS011;69599;52.622;9.230;2023-08-21T13:03:30;3.58;;;1.20;;
80297;SDS011;69599;52.622;9.230;2023-08-21T13:05:55;2.25;;;1.10;;
80297;SDS011;69599;52.622;9.230;2023-08-21T13:08:21;4.47;;;1.02;;
80297;SDS011;69599;52.622;9.230;2023-08-21T13:10:46;4.93;;;1.55;;
80297;SDS011;69599;52.622;9.230;2023-08-21T13:13:12;3.03;;;1.20;;
80297;SDS011;69599;52.622;9.230;2023-08-21T13:15:39;4.80;;;1.23;;
80297;SDS011;69599;52.622;9.230;2023-08-21T13:18:09;3.80;;;1.00;;
80297;SDS011;69599;52.622;9.230;2023-08-21T13:20:35;3.53;;;0.90;;
80297;SDS011;69599;52.622;9.230;2023-08-21T13:23:00;2.80;;;1.08;;
80297;SDS011;69599;52.622;9.230;2023-08-21T13:25:25;2.90;;;1.10;;
80297;SDS011;69599;52.622;9.230;2023-08-21T13:27:51;3.55;;;1.00;;
80297;SDS011;69599;52.622;9.230;2023-08-21T13:30:17;3.97;;;1.10;;
80297;SDS011;69599;52.622;9.230;2023-08-21T13:32:43;3.78;;;1.30;;
80297;SDS011;69599;52.622;9.230;2023-08-21T13:35:09;5.50;;;1.95;;
80297;SDS011;69599;52.622;9.230;2023-08-21T13:37:35;4.72;;;1.33;;
80297;SDS011;69599;52.622;9.230;2023-08-21T13:40:02;4.85;;;1.10;;
80297;SDS011;69599;52.622;9.230;2023-08-21T13:42:36;4.45;;;1.42;;
80297;SDS011;69599;52.622;9.230;2023-08-21T13:45:05;1.45;;;1.15;;
80297;SDS011;69599;52.622;9.230;2023-08-21T13:47:32;1.98;;;1.00;;
80297;SDS011;69599;52.622;9.230;2023-08-21T13:49:58;3.90;;;1.65;;
80297;SDS011;69599;52.622;9.230;2023-08-21T13:52:24;3.35;;;1.70;;
80297;SDS011;69599;52.622;9.230;2023-08-21T13:54:50;3.35;;;1.30;;
80297;SDS011;69599;52.622;9.230;2023-08-21T13:57:15;6.70;;;1.85;;
80297;SDS011;69599;52.622;9.230;2023-08-21T13:59:41;5.68;;;1.70;;
80297;SDS011;69599;52.622;9.230;2023-08-21T14:02:06;2.67;;;0.73;;
80297;SDS011;69599;52.622;9.230;2023-08-21T14:04:32;5.57;;;1.05;;
80297;SDS011;69599;52.622;9.230;2023-08-21T14:06:57;5.28;;;1.13;;
80297;SDS011;69599;52.622;9.230;2023-08-21T14:09:23;4.15;;;1.02;;
80297;SDS011;69599;52.622;9.230;2023-08-21T14:11:48;4.25;;;1.10;;
80297;SDS011;69599;52.622;9.230;2023-08-21T14:14:13;2.97;;;1.23;;
80297;SDS011;69599;52.622;9.230;2023-08-21T14:16:39;3.10;;;0.82;;
80297;SDS011;69599;52.622;9.230;2023-08-21T14:19:04;3.72;;;1.33;;
80297;SDS011;69599;52.622;9.230;2023-08-21T14:21:30;3.13;;;1.17;;
80297;SDS011;69599;52.622;9.230;2023-08-21T14:23:55;3.05;;;0.88;;
80297;SDS011;69599;52.622;9.230;2023-08-21T14:26:20;3.28;;;0.88;;
80297;SDS011;69599;52.622;9.230;2023-08-21T14:28:46;3.50;;;0.93;;
80297;SDS011;69599;52.622;9.230;2023-08-21T14:31:15;6.05;;;1.52;;
80297;SDS011;69599;52.622;9.230;2023-08-21T14:33:41;6.60;;;1.40;;
80297;SDS011;69599;52.622;9.230;2023-08-21T14:36:06;5.82;;;1.60;;
80297;SDS011;69599;52.622;9.230;2023-08-21T14:38:32;4.88;;;1.10;;
80297;SDS011;69599;52.622;9.230;2023-08-21T14:40:57;5.05;;;1.60;;
80297;SDS011;69599;52.622;9.230;2023-08-21T14:43:23;2.28;;;1.08;;
80297;SDS011;69599;52.622;9.230;2023-08-21T14:45:48;5.75;;;1.38;;
80297;SDS011;69599;52.622;9.230;2023-08-21T14:48:14;3.67;;;0.88;;
80297;SDS011;69599;52.622;9.230;2023-08-21T14:50:39;2.58;;;0.82;;
80297;SDS011;69599;52.622;9.230;2023-08-21T14:53:04;2.75;;;0.88;;
80297;SDS011;69599;52.622;9.230;2023-08-21T14:55:30;4.70;;;1.10;;
80297;SDS011;69599;52.622;9.230;2023-08-21T14:57:55;5.22;;;1.10;;
80297;SDS011;69599;52.622;9.230;2023-08-21T15:00:20;3.53;;;1.00;;
80297;SDS011;69599;52.622;9.230;2023-08-21T15:02:46;3.95;;;1.10;;
80297;SDS011;69599;52.622;9.230;2023-08-21T15:05:11;4.38;;;1.13;;